Time;durP1;ratioP1;P1;durP2;ratioP2;P2;SDS_P1;SDS_P2;PMS_P1;PMS_P2;Temp;Humidity;BMP_temperature;BMP_pressure;BME280_temperature;BME280_humidity;BME280_pressure;Samples;Min_cycle;Max_cycle;Signal;HPM_P1;HPM_P2
2022/05/24 00:01:24;;;;;;;5.87;1.17;;;;;;;12.00;100.00;100346.66;1883124;76;21050;-73
2022/05/24 00:03:52;;;;;;;2.35;1.05;;;;;;;11.99;100.00;100341.06;1882944;76;21164;-73
2022/05/24 00:06:19;;;;;;;6.12;1.07;;;;;;;11.86;100.00;100342.45;1882310;76;21164;-73
2022/05/24 00:08:47;;;;;;;3.58;0.95;;;;;;;11.80;100.00;100343.81;1882854;76;21460;-73
2022/05/24 00:11:14;;;;;;;3.15;0.80;;;;;;;11.91;100.00;100339.86;1882827;76;21107;-73
2022/05/24 00:13:42;;;;;;;3.75;1.05;;;;;;;11.91;100.00;100333.84;1868053;76;21048;-73
2022/05/24 00:16:09;;;;;;;3.72;0.57;;;;;;;11.89;100.00;100338.16;1883007;76;21780;-73
2022/05/24 00:18:36;;;;;;;2.62;0.90;;;;;;;11.92;100.00;100337.70;1882882;76;21062;-73
2022/05/24 00:21:06;;;;;;;2.05;0.50;;;;;;;11.84;100.00;100333.91;1882953;76;21176;-73
2022/05/24 00:23:33;;;;;;;2.10;0.85;;;;;;;11.81;100.00;100331.35;1882313;76;22366;-73
2022/05/24 00:26:04;;;;;;;0.93;0.60;;;;;;;11.94;100.00;100329.96;1882912;76;21216;-73
2022/05/24 00:28:32;;;;;;;2.52;0.60;;;;;;;11.87;100.00;100326.17;1883002;76;21174;-73
2022/05/24 00:31:00;;;;;;;5.35;1.17;;;;;;;11.96;100.00;100325.22;1877235;76;21600;-73
2022/05/24 00:33:28;;;;;;;1.98;0.95;;;;;;;11.95;100.00;100332.95;1870705;77;21616;-73
2022/05/24 00:35:56;;;;;;;8.75;1.15;;;;;;;12.01;100.00;100330.34;1870817;77;21077;-73
2022/05/24 00:38:36;;;;;;;4.35;0.82;;;;;;;11.96;100.00;100330.81;1870722;77;21104;-73
2022/05/24 00:41:13;;;;;;;5.37;0.82;;;;;;;12.18;100.00;100334.50;1870621;77;21115;-73
2022/05/24 00:43:52;;;;;;;2.98;0.80;;;;;;;12.23;100.00;100334.02;1842902;77;21019;-73
2022/05/24 00:46:24;;;;;;;1.47;0.70;;;;;;;12.54;100.00;100334.16;1863538;77;21030;-73
2022/05/24 00:49:00;;;;;;;3.22;0.72;;;;;;;12.60;100.00;100328.50;1839360;77;21042;-73
2022/05/24 00:51:37;;;;;;;2.20;0.65;;;;;;;12.62;100.00;100315.14;1862730;77;21115;-73
2022/05/24 00:54:04;;;;;;;1.25;0.72;;;;;;;12.60;100.00;100319.48;1869381;77;21112;-73
2022/05/24 00:56:53;;;;;;;3.35;0.93;;;;;;;12.45;100.00;100314.04;1850557;77;21056;-73
2022/05/24 00:59:38;;;;;;;4.70;0.60;;;;;;;12.40;100.00;100320.14;1870812;77;21093;-73
2022/05/24 01:02:06;;;;;;;2.52;0.82;;;;;;;12.38;100.00;100317.12;1870690;77;21025;-73
2022/05/24 01:04:34;;;;;;;2.22;0.78;;;;;;;12.14;100.00;100322.11;1870707;77;21073;-73
2022/05/24 01:07:01;;;;;;;3.05;1.12;;;;;;;12.06;100.00;100334.20;1870626;77;21093;-73
2022/05/24 01:09:37;;;;;;;5.67;1.00;;;;;;;12.03;100.00;100334.19;1870460;77;21549;-74
2022/05/24 01:12:07;;;;;;;3.55;0.98;;;;;;;12.12;100.00;100336.28;1856480;77;21017;-73
2022/05/24 01:14:35;;;;;;;3.15;0.70;;;;;;;12.05;100.00;100332.02;1860982;76;21077;-73
2022/05/24 01:17:03;;;;;;;2.50;0.80;;;;;;;12.06;100.00;100332.91;1870758;77;21085;-73
2022/05/24 01:19:40;;;;;;;2.40;0.80;;;;;;;12.08;100.00;100329.45;1870757;77;21124;-73
2022/05/24 01:22:21;;;;;;;9.43;1.32;;;;;;;12.01;100.00;100323.90;1870372;77;21123;-73
2022/05/24 01:24:51;;;;;;;5.45;1.05;;;;;;;12.06;100.00;100321.33;1848071;76;21070;-73
2022/05/24 01:27:19;;;;;;;9.35;1.07;;;;;;;11.98;100.00;100322.20;1869467;76;21437;-73
2022/05/24 01:29:46;;;;;;;6.58;1.17;;;;;;;11.90;100.00;100322.71;1870715;77;21038;-73
2022/05/24 01:37:45;;;;;;;7.08;2.60;;;;;;;11.91;100.00;100315.83;1879674;76;21072;-73
2022/05/24 01:40:13;;;;;;;3.00;1.20;;;;;;;11.91;100.00;100312.83;1879697;76;21038;-73
2022/05/24 01:42:40;;;;;;;1.95;1.00;;;;;;;11.92;100.00;100316.27;1879404;76;21096;-74
2022/05/24 01:45:13;;;;;;;6.25;1.30;;;;;;;11.81;100.00;100318.91;1879903;76;21116;-74
2022/05/24 01:47:43;;;;;;;6.63;1.13;;;;;;;11.83;100.00;100322.33;1879919;76;21542;-74
2022/05/24 01:50:13;;;;;;;4.92;1.47;;;;;;;11.87;100.00;100322.31;1880031;76;21244;-74
2022/05/24 01:52:46;;;;;;;7.45;1.00;;;;;;;11.85;100.00;100326.59;1879445;76;21464;-74
2022/05/24 01:55:26;;;;;;;5.78;1.85;;;;;;;11.78;100.00;100322.81;1880025;76;21093;-74
2022/05/24 01:57:55;;;;;;;3.77;0.90;;;;;;;11.76;100.00;100317.67;1879959;76;21052;-74
2022/05/24 02:00:23;;;;;;;6.62;0.90;;;;;;;11.76;100.00;100317.67;1880014;76;21144;-74
2022/05/24 02:02:50;;;;;;;6.20;1.00;;;;;;;11.78;100.00;100321.08;1879846;76;21652;-74
2022/05/24 02:05:33;;;;;;;3.77;1.30;;;;;;;11.72;100.00;100315.99;1816777;78;21141;-74
2022/05/24 02:08:02;;;;;;;6.60;1.62;;;;;;;11.77;100.00;100323.66;1877974;76;21095;-74
2022/05/24 02:10:31;;;;;;;14.60;2.40;;;;;;;11.75;100.00;100315.95;1879822;76;21576;-73
2022/05/24 02:13:01;;;;;;;4.92;1.45;;;;;;;11.69;100.00;100320.70;1858648;76;21116;-74
2022/05/24 02:15:31;;;;;;;4.67;1.02;;;;;;;11.65;100.00;100324.63;1879729;76;21145;-74
2022/05/24 02:18:10;;;;;;;2.40;0.78;;;;;;;11.61;100.00;100327.63;1879903;76;21525;-74
2022/05/24 02:20:41;;;;;;;4.83;1.07;;;;;;;11.51;100.00;100330.70;1879807;76;21021;-74
2022/05/24 02:23:10;;;;;;;6.25;1.62;;;;;;;11.52;100.00;100330.28;1842566;76;21052;-74
2022/05/24 02:25:53;;;;;;;5.20;0.93;;;;;;;11.55;100.00;100330.27;1879847;76;21546;-74
2022/05/24 02:28:23;;;;;;;4.83;0.90;;;;;;;11.51;100.00;100331.98;1843003;76;21113;-74
2022/05/24 02:30:54;;;;;;;5.12;0.95;;;;;;;11.51;100.00;100335.01;1862875;76;21054;-74
2022/05/24 02:33:22;;;;;;;5.28;1.37;;;;;;;11.55;100.00;100337.98;1875008;76;21048;-74
2022/05/24 02:35:50;;;;;;;2.47;1.22;;;;;;;11.56;100.00;100333.25;1879999;76;21681;-73
2022/05/24 02:38:19;;;;;;;4.70;1.00;;;;;;;11.56;100.00;100332.83;1879304;76;21648;-74
2022/05/24 02:43:32;;;;;;;7.37;1.15;;;;;;;11.60;100.00;100329.79;1879608;76;21227;-74
2022/05/24 02:46:00;;;;;;;4.78;1.80;;;;;;;11.61;100.00;100328.49;1879727;76;21082;-73
2022/05/24 02:48:28;;;;;;;5.60;1.42;;;;;;;11.68;100.00;100331.87;1880103;76;21054;-74
2022/05/24 02:50:55;;;;;;;2.83;0.98;;;;;;;11.87;100.00;100333.02;1879967;76;21094;-73
2022/05/24 02:53:23;;;;;;;4.53;0.95;;;;;;;11.82;100.00;100333.05;1879722;76;21097;-73
2022/05/24 02:55:50;;;;;;;4.80;1.15;;;;;;;11.82;100.00;100341.23;1839895;76;21073;-73
2022/05/24 02:58:18;;;;;;;5.62;1.55;;;;;;;11.87;100.00;100335.18;1862729;76;21540;-73
2022/05/24 03:00:46;;;;;;;4.75;1.10;;;;;;;11.88;100.00;100337.30;1879250;76;21115;-73
2022/05/24 03:03:13;;;;;;;2.42;0.95;;;;;;;11.85;100.00;100338.61;1879898;76;21147;-73
2022/05/24 03:05:40;;;;;;;11.73;1.65;;;;;;;11.94;100.00;100329.96;1879731;76;21200;-74
2022/05/24 03:10:53;;;;;;;2.45;1.17;;;;;;;11.82;100.00;100336.08;1879847;76;21596;-74
2022/05/24 03:16:13;;;;;;;2.22;1.35;;;;;;;11.99;100.00;100339.36;1861241;76;21591;-74
2022/05/24 03:18:41;;;;;;;3.95;1.00;;;;;;;11.97;100.00;100338.50;1879171;76;21065;-74
2022/05/24 03:21:09;;;;;;;3.37;1.05;;;;;;;11.97;100.00;100342.36;1880127;76;21109;-74
2022/05/24 03:23:36;;;;;;;4.08;1.15;;;;;;;11.86;100.00;100344.20;1879651;76;21162;-74
2022/05/24 03:26:05;;;;;;;2.70;0.80;;;;;;;11.95;100.00;100343.25;1880103;76;21097;-74
2022/05/24 03:28:33;;;;;;;3.37;0.90;;;;;;;11.96;100.00;100341.12;1879909;76;21037;-74
2022/05/24 03:31:03;;;;;;;5.28;1.27;;;;;;;11.94;100.00;100335.98;1879779;76;21037;-74
2022/05/24 03:33:31;;;;;;;2.02;1.10;;;;;;;11.94;100.00;100332.54;1872034;76;21085;-74
2022/05/24 03:35:58;;;;;;;3.35;1.40;;;;;;;11.91;100.00;100337.70;1870756;77;21121;-74
2022/05/24 03:38:28;;;;;;;3.98;1.00;;;;;;;11.84;100.00;100335.20;1870622;77;21011;-74
2022/05/24 03:40:56;;;;;;;2.60;1.20;;;;;;;11.76;100.00;100330.55;1870796;77;21090;-74
2022/05/24 03:43:23;;;;;;;4.58;1.02;;;;;;;11.85;100.00;100333.03;1870809;77;21034;-74
2022/05/24 03:46:03;;;;;;;5.72;0.80;;;;;;;11.94;100.00;100325.68;1846762;76;21073;-74
2022/05/24 03:48:30;;;;;;;3.62;1.10;;;;;;;12.03;100.00;100321.31;1876650;76;21038;-74
2022/05/24 03:50:58;;;;;;;8.60;1.45;;;;;;;11.99;100.00;100316.61;1870632;77;21149;-74
2022/05/24 03:53:26;;;;;;;3.75;1.40;;;;;;;11.93;100.00;100323.11;1870858;77;21021;-74
2022/05/24 03:55:54;;;;;;;4.92;1.00;;;;;;;11.83;100.00;100333.47;1870665;77;21077;-74
2022/05/24 03:58:22;;;;;;;7.62;1.55;;;;;;;11.89;100.00;100330.44;1870909;77;21537;-74
2022/05/24 04:00:50;;;;;;;4.83;1.20;;;;;;;12.00;100.00;100332.50;1870904;77;21042;-74
2022/05/24 04:03:18;;;;;;;2.62;1.05;;;;;;;12.05;100.00;100328.16;1870208;77;21120;-74
2022/05/24 04:05:46;;;;;;;10.20;2.27;;;;;;;12.20;100.00;100326.34;1870696;77;21069;-74
2022/05/24 04:08:16;;;;;;;9.15;1.20;;;;;;;12.28;100.00;100329.70;1870229;77;21121;-73
2022/05/24 04:10:44;;;;;;;4.75;1.80;;;;;;;12.29;100.00;100326.67;1870525;77;21107;-73
2022/05/24 04:13:11;;;;;;;7.40;2.15;;;;;;;12.13;100.00;100332.83;1855682;77;21084;-73
2022/05/24 04:15:39;;;;;;;4.30;1.57;;;;;;;12.10;100.00;100327.70;1867433;77;21073;-73
2022/05/24 04:18:06;;;;;;;5.30;0.90;;;;;;;12.10;100.00;100330.73;1870748;77;21483;-73
2022/05/24 04:20:34;;;;;;;2.20;1.15;;;;;;;12.03;100.00;100335.47;1870735;77;21241;-73
2022/05/24 04:23:02;;;;;;;4.45;1.20;;;;;;;12.07;100.00;100334.16;1870867;77;21030;-73
2022/05/24 04:25:33;;;;;;;1.62;0.90;;;;;;;11.97;100.00;100331.23;1870660;77;21062;-73
2022/05/24 04:28:01;;;;;;;1.87;0.85;;;;;;;11.99;100.00;100327.77;1870951;77;21049;-73
2022/05/24 04:30:28;;;;;;;2.70;1.12;;;;;;;12.11;100.00;100328.11;1870635;77;21124;-73
2022/05/24 04:32:55;;;;;;;8.60;2.15;;;;;;;12.13;100.00;100330.25;1870780;77;21046;-73
2022/05/24 04:35:23;;;;;;;5.30;0.90;;;;;;;12.02;100.00;100333.32;1850201;77;21042;-73
2022/05/24 04:37:50;;;;;;;5.67;1.45;;;;;;;11.98;100.00;100338.08;1870774;77;21432;-73
2022/05/24 04:40:18;;;;;;;1.87;0.78;;;;;;;12.00;100.00;100333.78;1870841;77;21042;-73
2022/05/24 04:42:45;;;;;;;4.30;0.75;;;;;;;11.78;100.00;100331.37;1792353;77;21022;-73
2022/05/24 04:45:16;;;;;;;1.95;1.35;;;;;;;11.86;100.00;100329.59;1870601;77;21226;-74
2022/05/24 04:47:43;;;;;;;6.25;1.20;;;;;;;11.71;100.00;100330.98;1870666;77;21137;-73
2022/05/24 04:50:12;;;;;;;2.12;0.60;;;;;;;11.63;100.00;100329.77;1870566;77;21011;-74
2022/05/24 04:52:41;;;;;;;2.37;0.50;;;;;;;11.58;100.00;100327.67;1870705;77;21565;-74
2022/05/24 04:55:12;;;;;;;2.65;1.10;;;;;;;11.62;100.00;100330.65;1870655;77;21074;-74
2022/05/24 04:57:40;;;;;;;2.17;0.60;;;;;;;11.69;100.00;100332.73;1870742;77;21459;-74
2022/05/24 05:00:14;;;;;;;2.42;1.12;;;;;;;11.53;100.00;100342.27;1870796;77;21100;-74
2022/05/24 05:02:42;;;;;;;4.58;1.67;;;;;;;11.47;100.00;100344.45;1870824;77;21078;-73
2022/05/24 05:05:10;;;;;;;3.12;0.68;;;;;;;11.40;100.00;100349.23;1870010;77;21078;-73
2022/05/24 05:07:38;;;;;;;6.45;1.50;;;;;;;11.43;100.00;100349.19;1870724;77;21078;-73
2022/05/24 05:10:06;;;;;;;2.83;1.22;;;;;;;11.50;100.00;100361.16;1870425;77;21027;-73
2022/05/24 05:12:33;;;;;;;2.25;0.85;;;;;;;11.47;100.00;100365.89;1859730;77;21478;-74
2022/05/24 05:15:01;;;;;;;2.90;0.93;;;;;;;11.54;100.00;100370.56;1862251;77;21066;-73
2022/05/24 05:17:28;;;;;;;2.92;1.17;;;;;;;11.55;100.00;100370.98;1870657;77;21119;-75
2022/05/24 05:19:59;;;;;;;2.22;0.95;;;;;;;11.51;100.00;100366.72;1846639;76;21439;-75
2022/05/24 05:22:25;;;;;;;1.77;0.60;;;;;;;11.59;100.00;100376.56;1869485;76;21148;-75
2022/05/24 05:24:53;;;;;;;5.62;0.80;;;;;;;11.67;100.00;100374.34;1870124;77;21141;-75
2022/05/24 05:27:21;;;;;;;2.58;0.98;;;;;;;11.70;100.00;100377.77;1870480;77;21045;-75
2022/05/24 05:32:34;;;;;;;1.92;0.82;;;;;;;11.89;100.00;100381.48;1869596;77;21121;-75
2022/05/24 05:35:02;;;;;;;7.22;1.10;;;;;;;11.85;100.00;100375.93;1870429;77;21090;-75
2022/05/24 05:37:32;;;;;;;1.87;0.72;;;;;;;11.95;100.00;100380.58;1870750;77;21107;-75
2022/05/24 05:40:03;;;;;;;2.72;0.70;;;;;;;11.89;100.00;100379.35;1869960;77;21116;-75
2022/05/24 05:42:31;;;;;;;3.45;0.90;;;;;;;11.96;100.00;100375.87;1870441;76;21144;-75
2022/05/24 05:45:00;;;;;;;1.90;0.50;;;;;;;12.00;100.00;100381.41;1832962;77;21078;-76
2022/05/24 05:47:27;;;;;;;5.67;1.30;;;;;;;11.91;100.00;100373.33;1857833;77;21101;-75
2022/05/24 05:49:55;;;;;;;3.10;1.05;;;;;;;11.99;100.00;100373.25;1869433;77;21022;-75
2022/05/24 05:52:22;;;;;;;2.70;0.70;;;;;;;12.19;100.00;100386.42;1865001;76;21137;-75
2022/05/24 05:54:50;;;;;;;6.65;1.27;;;;;;;12.16;100.00;100385.19;1840004;76;21207;-75
2022/05/24 05:57:17;;;;;;;1.37;0.72;;;;;;;12.17;100.00;100390.75;1859764;76;21030;-75
2022/05/24 05:59:45;;;;;;;2.77;0.75;;;;;;;12.21;100.00;100391.14;1870194;77;21026;-75
2022/05/24 06:02:12;;;;;;;8.88;0.82;;;;;;;12.24;100.00;100393.70;1868962;77;21471;-75
2022/05/24 06:04:39;;;;;;;2.27;0.60;;;;;;;12.27;100.00;100396.68;1850601;77;21131;-75
2022/05/24 06:07:08;;;;;;;4.05;1.05;;;;;;;12.43;100.00;100398.24;1848244;77;21117;-75
2022/05/24 06:09:35;;;;;;;2.85;0.70;;;;;;;12.33;100.00;100394.03;1860535;77;21103;-75
2022/05/24 06:12:03;;;;;;;4.05;1.05;;;;;;;12.65;100.00;100404.46;1859032;77;21033;-75
2022/05/24 06:14:31;;;;;;;9.98;2.20;;;;;;;12.66;100.00;100406.61;1859292;77;21105;-75
2022/05/24 06:16:58;;;;;;;3.72;0.82;;;;;;;12.89;100.00;100414.95;1866512;76;21011;-75
2022/05/24 06:19:25;;;;;;;1.77;1.05;;;;;;;13.05;100.00;100412.63;1870020;77;21565;-75
2022/05/24 06:21:53;;;;;;;4.87;0.72;;;;;;;13.15;100.00;100413.78;1842398;77;21053;-75
2022/05/24 06:24:20;;;;;;;8.53;1.37;;;;;;;13.27;100.00;100411.92;1869882;77;21113;-76
2022/05/24 06:26:50;;;;;;;4.87;0.88;;;;;;;13.31;100.00;100420.50;1869585;77;21100;-76
2022/05/24 06:29:17;;;;;;;9.13;1.70;;;;;;;13.50;100.00;100409.52;1868466;76;21140;-76
2022/05/24 06:31:45;;;;;;;3.77;1.10;;;;;;;13.53;100.00;100412.06;1864312;76;21107;-76
2022/05/24 06:34:13;;;;;;;5.15;0.95;;;;;;;13.40;100.00;100419.08;1840744;76;21640;-76
2022/05/24 06:36:40;;;;;;;4.33;1.30;;;;;;;13.40;100.00;100418.66;1879640;76;21136;-76
2022/05/24 06:39:08;;;;;;;4.90;1.10;;;;;;;13.75;100.00;100428.10;1840985;76;21129;-76
2022/05/24 06:41:35;;;;;;;10.10;3.35;;;;;;;13.98;100.00;100428.63;1840805;76;21008;-75
2022/05/24 06:44:03;;;;;;;4.62;0.85;;;;;;;14.11;100.00;100437.88;1877835;76;21147;-75
2022/05/24 06:46:31;;;;;;;3.90;1.00;;;;;;;14.28;100.00;100436.78;1872245;75;21121;-75
2022/05/24 06:48:58;;;;;;;6.20;1.20;;;;;;;14.82;100.00;100430.69;1866867;76;21182;-75
2022/05/24 06:51:26;;;;;;;2.00;1.10;;;;;;;14.91;100.00;100433.52;1800549;78;21046;-75
2022/05/24 06:53:53;;;;;;;7.50;1.37;;;;;;;15.21;100.00;100435.10;1867923;76;21037;-75
2022/05/24 06:56:20;;;;;;;10.85;2.87;;;;;;;15.65;100.00;100431.59;1879563;76;21531;-75
2022/05/24 06:58:48;;;;;;;5.80;1.95;;;;;;;15.79;100.00;100439.05;1850541;76;21025;-75
2022/05/24 07:04:02;;;;;;;8.28;1.07;;;;;;;16.13;100.00;100438.73;1878830;76;21221;-75
2022/05/24 07:06:30;;;;;;;3.02;0.80;;;;;;;16.29;100.00;100439.66;1850098;76;21068;-75
2022/05/24 07:08:57;;;;;;;2.80;1.35;;;;;;;16.48;100.00;100452.56;1880444;76;21103;-75
2022/05/24 07:11:25;;;;;;;5.92;1.27;;;;;;;16.78;100.00;100449.64;1875047;76;21129;-75
2022/05/24 07:13:52;;;;;;;6.00;1.42;;;;;;;16.62;100.00;100452.64;1827868;76;21125;-75
2022/05/24 07:16:20;;;;;;;2.87;0.90;;;;;;;16.86;100.00;100453.73;1862951;76;21096;-75
2022/05/24 07:18:47;;;;;;;4.00;1.27;;;;;;;16.88;100.00;100448.48;1879468;76;21084;-75
2022/05/24 07:21:16;;;;;;;3.15;1.15;;;;;;;16.99;100.00;100455.52;1878994;76;21058;-75
2022/05/24 07:23:44;;;;;;;6.62;1.22;;;;;;;17.01;100.00;100449.00;1878790;76;21112;-75
2022/05/24 07:26:17;;;;;;;5.25;1.12;;;;;;;16.95;100.00;100456.97;1879056;76;21081;-75
2022/05/24 07:28:44;;;;;;;2.13;0.83;;;;;;;16.84;100.00;100453.34;1844922;76;21057;-75
2022/05/24 07:31:12;;;;;;;7.12;1.35;;;;;;;16.84;100.00;100453.34;1878035;76;21635;-75
2022/05/24 07:33:40;;;;;;;4.17;1.15;;;;;;;16.64;100.00;100454.73;1877854;76;21064;-75
2022/05/24 07:36:08;;;;;;;6.00;1.05;;;;;;;16.42;100.00;100447.95;1869453;76;21604;-75
2022/05/24 07:38:37;;;;;;;3.45;1.00;;;;;;;16.65;100.00;100457.75;1859235;77;22186;-75
2022/05/24 07:46:36;;;;;;;4.72;0.90;;;;;;;16.84;100.00;100459.83;1870443;77;21128;-72
2022/05/24 07:49:05;;;;;;;2.42;0.80;;;;;;;16.93;100.00;100468.69;1870341;77;21096;-73
2022/05/24 07:51:32;;;;;;;5.17;0.80;;;;;;;16.92;100.00;100470.02;1870828;77;21123;-74
2022/05/24 07:54:00;;;;;;;3.80;0.80;;;;;;;16.40;100.00;100467.89;1869470;77;21521;-74
2022/05/24 07:56:27;;;;;;;3.17;0.98;;;;;;;16.47;100.00;100468.16;1870586;77;21104;-73
2022/05/24 07:58:55;;;;;;;4.00;0.70;;;;;;;16.72;100.00;100472.70;1870269;77;21170;-74
2022/05/24 08:01:23;;;;;;;6.85;1.07;;;;;;;16.69;100.00;100471.04;1869474;77;21134;-73
2022/05/24 08:03:51;;;;;;;5.50;0.70;;;;;;;16.30;100.00;100470.73;1870104;77;21613;-73
2022/05/24 08:06:19;;;;;;;6.37;1.02;;;;;;;16.43;100.00;100466.53;1870467;77;21084;-73
2022/05/24 08:08:46;;;;;;;10.85;1.67;;;;;;;16.40;100.00;100462.70;1870497;77;21034;-73
2022/05/24 08:11:14;;;;;;;2.42;1.17;;;;;;;16.61;100.00;100460.84;1867936;77;21038;-72
2022/05/24 08:13:41;;;;;;;3.45;0.95;;;;;;;16.90;100.00;100466.17;1839191;76;21119;-73
2022/05/24 08:16:09;;;;;;;5.25;0.70;;;;;;;17.32;100.00;100468.07;1870339;77;21602;-73
2022/05/24 08:18:36;;;;;;;0.60;0.50;;;;;;;17.86;100.00;100469.52;1870766;77;21072;-73
2022/05/24 08:21:04;;;;;;;5.72;1.00;;;;;;;17.74;100.00;100469.44;1829856;78;21103;-74
2022/05/24 08:23:31;;;;;;;8.48;1.10;;;;;;;18.07;100.00;100473.64;1863903;77;21077;-73
2022/05/24 08:25:59;;;;;;;3.33;1.00;;;;;;;17.73;100.00;100473.80;1870643;77;21149;-74
2022/05/24 08:28:26;;;;;;;1.32;0.90;;;;;;;18.37;100.00;100472.28;1870605;77;21069;-74
2022/05/24 08:30:56;;;;;;;4.80;0.80;;;;;;;18.75;100.00;100467.98;1870891;77;21032;-74
2022/05/24 08:33:25;;;;;;;6.20;0.80;;;;;;;19.19;100.00;100481.63;1870312;77;21151;-75
2022/05/24 08:35:53;;;;;;;4.10;0.88;;;;;;;18.37;100.00;100482.69;1870796;77;21152;-75
2022/05/24 08:38:21;;;;;;;8.70;1.95;;;;;;;18.37;100.00;100482.69;1870335;77;21116;-74
2022/05/24 08:40:50;;;;;;;5.28;1.20;;;;;;;16.78;100.00;100484.23;1870730;77;21560;-74
2022/05/24 08:43:36;;;;;;;3.77;1.02;;;;;;;15.44;100.00;100476.92;1870812;77;21037;-75
2022/05/24 08:48:54;;;;;;;3.27;1.00;;;;;;;14.68;100.00;100476.16;1865291;76;21156;-74
2022/05/24 08:51:34;;;;;;;5.05;1.15;;;;;;;14.40;100.00;100471.47;1847871;76;21148;-75
2022/05/24 08:54:13;;;;;;;4.03;0.90;;;;;;;14.44;100.00;100470.53;1838492;77;21616;-74
2022/05/24 08:57:02;;;;;;;3.83;0.93;;;;;;;14.17;100.00;100473.11;1850720;77;21143;-75
2022/05/24 08:59:50;;;;;;;3.12;0.95;;;;;;;14.76;100.00;100470.84;1870209;77;22250;-74
2022/05/24 09:02:17;;;;;;;2.02;0.47;;;;;;;15.05;100.00;100472.52;1869387;76;21037;-74
2022/05/24 09:04:45;;;;;;;4.22;0.85;;;;;;;15.05;100.00;100482.87;1831158;76;21140;-74
2022/05/24 09:07:22;;;;;;;1.20;0.42;;;;;;;15.20;100.00;100481.70;1860510;77;21116;-74
2022/05/24 09:10:10;;;;;;;7.58;1.22;;;;;;;15.60;100.00;100479.59;1870062;77;21073;-74
2022/05/24 09:13:01;;;;;;;2.65;0.80;;;;;;;16.29;100.00;100477.24;1855706;76;21007;-74
2022/05/24 09:15:31;;;;;;;2.50;0.93;;;;;;;16.53;100.00;100473.63;1852385;77;21147;-74
2022/05/24 09:18:05;;;;;;;2.02;0.60;;;;;;;16.93;100.00;100480.36;1868371;76;21108;-75
2022/05/24 09:20:39;;;;;;;3.65;0.50;;;;;;;16.89;100.00;100485.23;1854408;77;21187;-75
2022/05/24 09:23:21;;;;;;;1.85;0.55;;;;;;;16.20;100.00;100482.19;1821978;78;21119;-75
2022/05/24 09:26:06;;;;;;;3.60;0.75;;;;;;;16.13;100.00;100477.61;1851913;77;21132;-75
2022/05/24 09:28:49;;;;;;;3.15;0.62;;;;;;;16.70;100.00;100479.22;1870164;77;21494;-75
2022/05/24 09:31:23;;;;;;;5.17;0.82;;;;;;;15.79;100.00;100474.02;1869748;77;21131;-75
2022/05/24 09:33:56;;;;;;;7.08;0.75;;;;;;;16.61;100.00;100484.19;1870209;77;21065;-75
2022/05/24 09:36:33;;;;;;;3.85;0.50;;;;;;;16.90;100.00;100483.03;1869529;76;21172;-75
2022/05/24 09:39:01;;;;;;;0.53;0.20;;;;;;;17.59;100.00;100472.06;1870102;77;21085;-75
2022/05/24 09:41:29;;;;;;;4.12;0.55;;;;;;;17.37;100.00;100474.84;1844599;76;21118;-74
2022/05/24 09:44:06;;;;;;;1.95;0.30;;;;;;;17.34;100.00;100477.98;1870246;77;21034;-75
2022/05/24 09:46:34;;;;;;;3.77;0.60;;;;;;;17.58;100.00;100475.13;1841719;77;21178;-75
2022/05/24 09:49:19;;;;;;;3.15;0.72;;;;;;;16.76;100.00;100481.67;1824101;78;21597;-75
2022/05/24 09:51:47;;;;;;;3.52;0.72;;;;;;;16.86;100.00;100480.12;1862638;77;21077;-75
2022/05/24 09:54:24;;;;;;;4.08;0.70;;;;;;;16.74;100.00;100487.33;1869901;77;21483;-75
2022/05/24 09:57:07;;;;;;;3.58;1.30;;;;;;;17.08;100.00;100492.53;1846265;77;21109;-74
2022/05/24 09:59:37;;;;;;;3.90;0.88;;;;;;;16.96;100.00;100501.48;1837457;78;21451;-75
2022/05/24 10:02:24;;;;;;;7.35;1.50;;;;;;;17.40;100.00;100499.42;1855297;76;21113;-75
2022/05/24 10:04:52;;;;;;;2.70;0.82;;;;;;;17.78;100.00;100499.62;1844093;77;21133;-75
2022/05/24 10:07:31;;;;;;;2.00;0.60;;;;;;;17.33;100.00;100506.15;1862246;77;21486;-75
2022/05/24 10:10:13;;;;;;;3.20;0.80;;;;;;;17.82;100.00;100503.83;1854743;77;21233;-75
2022/05/24 10:12:49;;;;;;;4.12;0.82;;;;;;;18.36;100.00;100499.17;1860501;77;21175;-75
2022/05/24 10:15:43;;;;;;;2.37;0.70;;;;;;;18.61;100.00;100497.08;1869116;76;21069;-75
2022/05/24 10:18:33;;;;;;;1.72;0.70;;;;;;;19.13;100.00;100506.59;1870489;77;21194;-75
2022/05/24 10:21:09;;;;;;;4.97;0.70;;;;;;;18.50;100.00;100502.17;1855892;77;21531;-75
2022/05/24 10:24:00;;;;;;;2.05;0.53;;;;;;;17.74;100.00;100513.61;1853682;77;21202;-75
2022/05/24 10:27:03;;;;;;;3.10;1.00;;;;;;;17.41;100.00;100517.16;1851816;77;21103;-75
2022/05/24 10:29:51;;;;;;;15.15;1.57;;;;;;;16.99;100.00;100513.92;1852330;77;21120;-74
2022/05/24 10:42:11;;;;;;;4.28;0.75;;;;;;;18.16;100.00;100517.56;1841209;77;21159;-74
2022/05/24 10:44:54;;;;;;;4.83;1.00;;;;;;;18.60;100.00;100526.57;1860336;76;21074;-74
2022/05/24 10:47:27;;;;;;;1.45;0.78;;;;;;;18.94;100.00;100516.33;1838826;76;21051;-74
2022/05/24 10:50:01;;;;;;;0.95;0.50;;;;;;;18.94;100.00;100516.33;1858023;76;21130;-74
2022/05/24 10:52:37;;;;;;;5.83;0.95;;;;;;;18.94;100.00;100534.55;1861014;77;21151;-74
2022/05/24 10:55:19;;;;;;;2.60;0.65;;;;;;;18.97;100.00;100523.17;1860928;77;21139;-75
2022/05/24 10:57:57;;;;;;;2.90;0.80;;;;;;;18.68;100.00;100525.86;1861177;77;21580;-74
2022/05/24 11:00:28;;;;;;;4.67;0.93;;;;;;;19.33;100.00;100528.00;1837055;77;21063;-75
2022/05/24 11:03:20;;;;;;;1.47;0.50;;;;;;;19.69;100.00;100526.70;1859453;76;21004;-75
2022/05/24 11:05:56;;;;;;;2.15;0.50;;;;;;;20.09;100.00;100523.02;1860800;76;21177;-74
2022/05/24 11:08:35;;;;;;;1.22;0.40;;;;;;;19.66;100.00;100525.03;1859851;77;21104;-73
2022/05/24 11:11:12;;;;;;;4.75;0.88;;;;;;;18.24;100.00;100531.64;1861495;76;21540;-75
2022/05/24 11:13:51;;;;;;;2.87;0.55;;;;;;;16.67;100.00;100537.66;1800347;77;21051;-75
2022/05/24 11:16:21;;;;;;;2.47;0.60;;;;;;;15.92;100.00;100534.62;1785599;79;21105;-74
2022/05/24 11:18:48;;;;;;;1.87;0.75;;;;;;;15.48;100.00;100535.52;1814716;77;21572;-75
2022/05/24 11:21:19;;;;;;;1.87;0.70;;;;;;;15.52;100.00;100532.41;1814799;79;21033;-75
2022/05/24 11:23:55;;;;;;;10.55;1.42;;;;;;;15.48;100.00;100539.40;1813728;79;21049;-74
2022/05/24 11:26:26;;;;;;;3.90;0.80;;;;;;;15.17;100.00;100538.69;1812799;78;21137;-75
2022/05/24 11:29:00;;;;;;;2.50;0.75;;;;;;;15.24;100.00;100538.13;1814324;79;21075;-75
2022/05/24 11:31:36;;;;;;;5.12;0.98;;;;;;;15.42;100.00;100536.92;1789675;78;21054;-75
2022/05/24 11:34:23;;;;;;;2.12;0.80;;;;;;;15.38;100.00;100536.57;1809646;79;21201;-75
2022/05/24 11:37:13;;;;;;;3.98;0.65;;;;;;;15.81;100.00;100542.17;1814952;79;21567;-75
2022/05/24 11:39:42;;;;;;;2.02;0.80;;;;;;;15.80;100.00;100534.42;1814425;79;21514;-75
2022/05/24 11:42:32;;;;;;;5.30;0.80;;;;;;;15.77;100.00;100543.13;1858820;76;21095;-75
2022/05/24 11:45:00;;;;;;;3.33;0.70;;;;;;;15.73;100.00;100541.05;1856469;77;21100;-74
2022/05/24 11:47:40;;;;;;;1.22;0.60;;;;;;;15.87;100.00;100551.55;1858822;76;21206;-75
2022/05/24 11:50:10;;;;;;;1.50;1.00;;;;;;;16.04;100.00;100543.45;1858994;76;21108;-75
2022/05/24 11:53:03;;;;;;;6.37;1.05;;;;;;;16.09;100.00;100542.89;1858597;77;21052;-75
2022/05/24 11:55:48;;;;;;;2.95;0.70;;;;;;;15.98;100.00;100544.43;1858834;76;21154;-75
2022/05/24 11:58:22;;;;;;;1.67;0.82;;;;;;;16.03;100.00;100556.44;1858779;76;22326;-75
2022/05/24 12:01:01;;;;;;;2.25;0.70;;;;;;;16.42;100.00;100556.41;1859042;77;21120;-75
2022/05/24 12:09:25;;;;;;;4.10;0.90;;;;;;;17.11;100.00;100566.42;1858957;77;21116;-75
2022/05/24 12:12:18;;;;;;;5.53;1.57;;;;;;;17.12;100.00;100565.09;1816877;77;21040;-75
2022/05/24 12:14:46;;;;;;;3.12;1.00;;;;;;;17.18;100.00;100570.56;1852570;75;21087;-75
2022/05/24 12:17:16;;;;;;;4.25;0.78;;;;;;;16.96;100.00;100576.30;1894177;76;21139;-75
2022/05/24 12:19:49;;;;;;;1.77;0.78;;;;;;;17.15;100.00;100571.51;1899729;74;21015;-75